createdAt,value
2019-03-03T00:01:45.858Z,100115.23
2019-03-03T00:04:15.488Z,100119.56
2019-03-03T00:06:46.187Z,100120.45
2019-03-03T00:09:16.407Z,100136.45
2019-03-03T00:11:46.111Z,100134.29
2019-03-03T00:14:15.719Z,100127.39
2019-03-03T00:16:45.841Z,100130.41
2019-03-03T00:19:15.547Z,100128.68
2019-03-03T00:21:47.185Z,100123.03
2019-03-03T00:24:16.904Z,100133.01
2019-03-03T00:26:46.615Z,100140.80
2019-03-03T00:29:16.837Z,100141.67
2019-03-03T00:31:47.673Z,100149.03
2019-03-03T00:34:17.486Z,100139.52
2019-03-03T00:37:01.049Z,100149.48
2019-03-03T00:39:41.186Z,100141.23
2019-03-03T00:42:15.831Z,100135.62
2019-03-03T00:45:03.331Z,100135.16
2019-03-03T00:47:53.509Z,100146.02
2019-03-03T00:50:27.725Z,100148.16
2019-03-03T00:53:00.396Z,100157.72
2019-03-03T00:55:35.738Z,100162.48
2019-03-03T00:58:19.580Z,100165.94
2019-03-03T01:01:03.329Z,100176.34
2019-03-03T01:03:37.710Z,100183.27
2019-03-03T01:06:09.086Z,100183.72
2019-03-03T01:08:49.957Z,100181.98
2019-03-03T01:11:27.046Z,100190.20
2019-03-03T01:14:10.918Z,100193.66
2019-03-03T01:16:43.246Z,100193.23
2019-03-03T01:19:27.210Z,100186.75
2019-03-03T01:22:01.507Z,100182.40
2019-03-03T01:24:42.481Z,100179.81
2019-03-03T01:27:12.286Z,100179.80
2019-03-03T01:29:42.415Z,100180.66
2019-03-03T01:32:12.216Z,100186.31
2019-03-03T01:34:41.820Z,100181.98
2019-03-03T01:37:11.943Z,100185.45
2019-03-03T01:39:41.652Z,100190.63
2019-03-03T01:42:11.357Z,100193.69
2019-03-03T01:44:41.427Z,100193.27
2019-03-03T01:47:11.182Z,100198.02
2019-03-03T01:49:40.881Z,100194.09
2019-03-03T01:52:11.011Z,100199.72
2019-03-03T01:54:42.253Z,100207.09
2019-03-03T01:57:12.331Z,100205.36
2019-03-03T01:59:41.999Z,100207.11
2019-03-03T02:02:11.691Z,100202.31
2019-03-03T02:04:41.814Z,100192.38
2019-03-03T02:07:11.514Z,100200.62
2019-03-03T02:09:41.526Z,100194.95
2019-03-03T02:12:11.856Z,100189.30
2019-03-03T02:14:41.568Z,100186.31
2019-03-03T02:17:12.547Z,100181.10
2019-03-03T02:19:42.725Z,100181.96
2019-03-03T02:22:12.424Z,100188.03
2019-03-03T02:24:42.239Z,100189.75
2019-03-03T02:27:12.357Z,100191.08
2019-03-03T02:29:42.002Z,100201.88
2019-03-03T02:32:11.775Z,100194.90
2019-03-03T02:34:41.822Z,100193.23
2019-03-03T02:37:11.499Z,100208.80
2019-03-03T02:39:41.186Z,100213.16
2019-03-03T02:42:11.530Z,100229.63
2019-03-03T02:44:41.238Z,100230.45
2019-03-03T02:47:10.945Z,100233.06
2019-03-03T02:49:41.176Z,100237.41
2019-03-03T02:52:10.873Z,100232.60
2019-03-03T02:54:40.586Z,100242.55
2019-03-03T02:57:10.805Z,100232.52
2019-03-03T02:59:40.614Z,100244.52
2019-03-03T03:02:11.829Z,100253.19
2019-03-03T03:04:41.976Z,100255.84
2019-03-03T03:07:15.985Z,100253.73
2019-03-03T03:10:04.863Z,100245.96
2019-03-03T03:12:42.245Z,100233.83
2019-03-03T03:15:13.971Z,100234.70
2019-03-03T03:17:45.229Z,100236.87
2019-03-03T03:20:22.571Z,100242.92
2019-03-03T03:22:53.793Z,100248.15
2019-03-03T03:25:34.332Z,100245.08
2019-03-03T03:28:05.555Z,100253.73
2019-03-03T03:30:40.118Z,100247.63
2019-03-03T03:33:17.383Z,100259.38
2019-03-03T03:35:54.868Z,100254.55
2019-03-03T03:38:34.819Z,100260.59
2019-03-03T03:41:06.576Z,100258.42
2019-03-03T03:43:40.482Z,100263.59
2019-03-03T03:46:21.353Z,100277.07
2019-03-03T03:49:08.779Z,100280.11
2019-03-03T03:51:49.541Z,100279.28
2019-03-03T03:54:20.791Z,100283.98
2019-03-03T03:56:53.508Z,100288.26
2019-03-03T03:59:36.705Z,100287.39
2019-03-03T04:02:08.450Z,100290.89
2019-03-03T04:04:40.733Z,100289.55
2019-03-03T04:07:12.581Z,100301.20
2019-03-03T04:09:55.796Z,100301.98
2019-03-03T04:12:33.538Z,100308.03
2019-03-03T04:15:14.059Z,100304.22
2019-03-03T04:17:48.690Z,100299.81
2019-03-03T04:20:38.155Z,100308.55
2019-03-03T04:23:26.295Z,100313.27
2019-03-03T04:26:03.288Z,100304.14
2019-03-03T04:28:41.176Z,100312.37
2019-03-03T04:31:12.417Z,100315.80
2019-03-03T04:33:46.805Z,100312.80
2019-03-03T04:36:33.544Z,100314.41
2019-03-03T04:39:05.297Z,100311.05
2019-03-03T04:41:53.136Z,100309.27
2019-03-03T04:44:27.550Z,100305.29
2019-03-03T04:47:13.874Z,100312.67
2019-03-03T04:49:45.439Z,100321.77
2019-03-03T04:52:17.058Z,100327.75
2019-03-03T04:55:02.736Z,100337.31
2019-03-03T04:57:33.979Z,100341.33
2019-03-03T05:00:14.346Z,100342.57
2019-03-03T05:03:03.968Z,100345.08
2019-03-03T05:05:35.878Z,100352.73
2019-03-03T05:08:07.099Z,100358.05
2019-03-03T05:10:54.144Z,100361.11
2019-03-03T05:13:43.413Z,100363.13
2019-03-03T05:16:17.936Z,100366.73
2019-03-03T05:18:49.267Z,100377.03
2019-03-03T05:21:19.496Z,100371.00
2019-03-03T05:23:49.227Z,100374.03
2019-03-03T05:26:18.871Z,100373.64
2019-03-03T05:28:56.093Z,100368.91
2019-03-03T05:31:25.899Z,100370.19
2019-03-03T05:33:57.145Z,100365.88
2019-03-03T05:36:26.853Z,100363.66
2019-03-03T05:38:56.561Z,100363.38
2019-03-03T05:41:26.888Z,100364.94
2019-03-03T05:43:56.549Z,100368.70
2019-03-03T05:46:26.223Z,100361.69
2019-03-03T05:48:56.324Z,100359.52
2019-03-03T05:51:26.024Z,100357.23
2019-03-03T05:53:55.719Z,100356.48
2019-03-03T05:56:25.737Z,100352.16
2019-03-03T05:58:55.391Z,100359.65
2019-03-03T06:01:25.166Z,100350.45
2019-03-03T06:03:55.288Z,100352.33
2019-03-03T06:06:24.992Z,100351.39
2019-03-03T06:08:54.694Z,100352.31
2019-03-03T06:11:24.794Z,100359.71
2019-03-03T06:13:54.532Z,100361.07
2019-03-03T06:16:24.227Z,100358.83
2019-03-03T06:18:54.352Z,100359.22
2019-03-03T06:21:24.061Z,100364.45
2019-03-03T06:23:55.616Z,100362.86
2019-03-03T06:26:25.674Z,100364.60
2019-03-03T06:28:55.439Z,100359.03
2019-03-03T06:31:25.093Z,100361.64
2019-03-03T06:33:55.266Z,100363.01
2019-03-03T06:36:24.976Z,100366.10
2019-03-03T06:38:54.663Z,100369.55
2019-03-03T06:41:24.791Z,100376.56
2019-03-03T06:43:54.451Z,100366.95
2019-03-03T06:46:24.428Z,100365.72
2019-03-03T06:48:55.569Z,100357.57
2019-03-03T06:51:25.272Z,100361.00
2019-03-03T06:53:56.626Z,100356.70
2019-03-03T06:56:26.738Z,100365.77
2019-03-03T06:58:56.452Z,100369.27
2019-03-03T07:01:26.112Z,100378.34
2019-03-03T07:03:56.205Z,100373.64
2019-03-03T07:06:25.988Z,100368.91
2019-03-03T07:08:55.692Z,100368.91
2019-03-03T07:11:25.787Z,100366.72
2019-03-03T07:13:55.500Z,100359.78
2019-03-03T07:16:26.379Z,100362.81
2019-03-03T07:18:56.715Z,100368.04
2019-03-03T07:21:26.497Z,100369.78
2019-03-03T07:23:56.161Z,100358.92
2019-03-03T07:26:26.317Z,100364.16
2019-03-03T07:28:56.025Z,100371.97
2019-03-03T07:31:25.686Z,100365.89
2019-03-03T07:33:56.173Z,100365.86
2019-03-03T07:36:25.867Z,100363.25
2019-03-03T07:38:55.686Z,100368.03
2019-03-03T07:41:25.802Z,100371.53
2019-03-03T07:43:55.505Z,100372.83
2019-03-03T07:46:25.173Z,100362.83
2019-03-03T07:48:55.439Z,100374.56
2019-03-03T07:51:25.137Z,100378.02
2019-03-03T07:53:55.153Z,100378.02
2019-03-03T07:56:25.277Z,100379.73
2019-03-03T07:58:54.981Z,100375.39
2019-03-03T08:01:24.644Z,100379.64
2019-03-03T08:03:55.146Z,100383.16
2019-03-03T08:06:25.033Z,100381.01
2019-03-03T08:08:54.701Z,100383.11
2019-03-03T08:11:24.749Z,100387.52
2019-03-03T08:13:54.462Z,100385.76
2019-03-03T08:16:24.128Z,100383.62
2019-03-03T08:18:54.285Z,100381.83
2019-03-03T08:21:23.944Z,100390.02
2019-03-03T08:23:54.333Z,100386.47
2019-03-03T08:26:24.541Z,100390.80
2019-03-03T08:28:54.196Z,100387.22
2019-03-03T08:31:23.958Z,100388.88
2019-03-03T08:33:54.176Z,100394.95
2019-03-03T08:36:23.828Z,100389.36
2019-03-03T08:38:53.492Z,100406.17
2019-03-03T08:41:23.712Z,100396.34
2019-03-03T08:44:01.104Z,100392.89
2019-03-03T08:46:35.925Z,100389.81
2019-03-03T08:49:12.889Z,100394.06
2019-03-03T08:51:56.641Z,100398.34
2019-03-03T08:54:28.000Z,100393.83
2019-03-03T08:57:05.854Z,100391.00
2019-03-03T08:59:39.941Z,100393.86
2019-03-03T09:02:20.770Z,100388.09
2019-03-03T09:04:52.213Z,100388.03
2019-03-03T09:07:32.682Z,100389.11
2019-03-03T09:10:09.768Z,100394.69
2019-03-03T09:12:53.806Z,100386.38
2019-03-03T09:15:25.527Z,100384.44
2019-03-03T09:18:13.611Z,100393.95
2019-03-03T09:20:44.950Z,100392.11
2019-03-03T09:23:22.436Z,100396.88
2019-03-03T09:25:53.680Z,100387.23
2019-03-03T09:28:28.265Z,100394.62
2019-03-03T09:31:02.363Z,100386.99
2019-03-03T09:33:44.620Z,100386.41
2019-03-03T09:36:34.190Z,100378.00
2019-03-03T09:39:09.048Z,100383.89
2019-03-03T09:41:49.471Z,100385.16
2019-03-03T09:44:30.253Z,100386.90
2019-03-03T09:47:01.465Z,100381.81
2019-03-03T09:49:49.637Z,100379.34
2019-03-03T09:52:23.746Z,100372.56
2019-03-03T09:54:55.501Z,100366.26
2019-03-03T09:57:26.846Z,100373.69
2019-03-03T10:00:04.384Z,100377.98
2019-03-03T10:02:52.212Z,100367.98
2019-03-03T10:05:27.629Z,100367.14
2019-03-03T10:07:58.862Z,100369.88
2019-03-03T10:10:48.943Z,100362.84
2019-03-03T10:13:29.358Z,100362.52
2019-03-03T10:16:01.069Z,100365.58
2019-03-03T10:18:47.504Z,100357.83
2019-03-03T10:21:21.977Z,100356.66
2019-03-03T10:23:53.192Z,100349.90
2019-03-03T10:26:27.795Z,100344.72
2019-03-03T10:29:05.273Z,100337.81
2019-03-03T10:31:47.922Z,100344.59
2019-03-03T10:34:24.939Z,100336.20
2019-03-03T10:36:56.689Z,100333.62
2019-03-03T10:39:37.250Z,100337.58
2019-03-03T10:42:12.080Z,100320.89
2019-03-03T10:44:55.298Z,100316.13
2019-03-03T10:47:42.115Z,100317.38
2019-03-03T10:50:28.574Z,100326.16
2019-03-03T10:53:09.349Z,100325.13
2019-03-03T10:55:41.597Z,100329.52
2019-03-03T10:58:19.569Z,100316.56
2019-03-03T11:01:00.011Z,100318.23
2019-03-03T11:03:34.841Z,100317.30
2019-03-03T11:06:09.119Z,100315.85
2019-03-03T11:08:41.023Z,100316.47
2019-03-03T11:11:21.480Z,100306.98
2019-03-03T11:13:55.964Z,100310.04
2019-03-03T11:16:30.515Z,100304.86
2019-03-03T11:19:05.383Z,100299.93
2019-03-03T11:21:39.011Z,100292.42
2019-03-03T11:24:10.680Z,100276.28
2019-03-03T11:26:41.896Z,100283.15
2019-03-03T11:29:22.826Z,100291.49
2019-03-03T11:31:57.080Z,100285.08
2019-03-03T11:34:36.679Z,100278.67
2019-03-03T11:37:10.888Z,100276.39
2019-03-03T11:39:48.449Z,100276.96
2019-03-03T11:42:25.755Z,100272.77
2019-03-03T11:45:00.344Z,100280.48
2019-03-03T11:47:31.637Z,100276.14
2019-03-03T11:50:09.397Z,100275.80
2019-03-03T11:52:40.763Z,100268.55
2019-03-03T11:55:15.606Z,100272.31
2019-03-03T11:57:52.791Z,100279.20
2019-03-03T12:00:40.946Z,100272.38
2019-03-03T12:03:24.398Z,100276.70
2019-03-03T12:05:59.289Z,100267.66
2019-03-03T12:08:36.786Z,100261.06
2019-03-03T12:11:08.646Z,100266.97
2019-03-03T12:13:56.273Z,100264.69
2019-03-03T12:16:44.404Z,100264.87
2019-03-03T12:19:15.656Z,100265.59
2019-03-03T12:21:50.630Z,100260.46
2019-03-03T12:24:24.576Z,100258.20
2019-03-03T12:27:02.340Z,100265.38
2019-03-03T12:29:45.434Z,100253.44
2019-03-03T12:32:17.173Z,100259.33
2019-03-03T12:34:51.539Z,100250.97
2019-03-03T12:37:23.848Z,100240.78
2019-03-03T12:39:57.769Z,100246.38
2019-03-03T12:42:29.499Z,100244.58
2019-03-03T12:45:06.623Z,100239.33
2019-03-03T12:47:38.347Z,100242.69
2019-03-03T12:50:16.053Z,100245.72
2019-03-03T12:52:50.670Z,100230.13
2019-03-03T12:55:37.211Z,100226.38
2019-03-03T12:58:11.661Z,100226.56
2019-03-03T13:00:42.879Z,100220.55
2019-03-03T13:03:17.577Z,100220.38
2019-03-03T13:05:48.916Z,100217.33
2019-03-03T13:08:20.580Z,100216.72
2019-03-03T13:11:09.860Z,100214.95
2019-03-03T13:13:57.661Z,100215.77
2019-03-03T13:16:45.449Z,100210.48
2019-03-03T13:19:29.205Z,100206.89
2019-03-03T13:22:09.267Z,100203.50
2019-03-03T13:24:46.786Z,100203.11
2019-03-03T13:27:27.137Z,100203.98
2019-03-03T13:30:01.599Z,100196.83
2019-03-03T13:32:32.920Z,100193.52
2019-03-03T13:35:10.408Z,100195.24
2019-03-03T13:37:41.843Z,100190.70
2019-03-03T13:40:28.892Z,100194.90
2019-03-03T13:42:58.575Z,100196.84
2019-03-03T13:45:30.162Z,100190.78
2019-03-03T13:47:59.930Z,100189.73
2019-03-03T13:50:30.057Z,100188.50
2019-03-03T13:52:59.768Z,100183.59
2019-03-03T13:55:29.421Z,100185.80
2019-03-03T13:57:59.520Z,100183.73
2019-03-03T14:00:29.257Z,100195.58
2019-03-03T14:02:59.000Z,100195.58
2019-03-03T14:05:30.092Z,100198.56
2019-03-03T14:07:59.858Z,100197.31
2019-03-03T14:10:29.665Z,100195.17
2019-03-03T14:13:00.135Z,100186.95
2019-03-03T14:15:29.900Z,100185.87
2019-03-03T14:17:59.539Z,100185.80
2019-03-03T14:20:29.826Z,100180.34
2019-03-03T14:22:59.473Z,100171.41
2019-03-03T14:25:29.143Z,100173.69
2019-03-03T14:27:59.359Z,100177.48
2019-03-03T14:30:29.868Z,100177.95
2019-03-03T14:33:00.008Z,100171.95
2019-03-03T14:35:29.693Z,100165.76
2019-03-03T14:37:59.349Z,100171.39
2019-03-03T14:40:29.750Z,100168.96
2019-03-03T14:42:59.663Z,100160.03
2019-03-03T14:45:29.417Z,100163.26
2019-03-03T14:47:59.594Z,100157.55
2019-03-03T14:50:29.240Z,100159.33
2019-03-03T14:52:59.010Z,100158.08
2019-03-03T14:55:29.434Z,100164.16
2019-03-03T14:57:59.140Z,100159.99
2019-03-03T15:00:32.232Z,100155.22
2019-03-03T15:03:04.318Z,100162.61
2019-03-03T15:05:34.102Z,100162.61
2019-03-03T15:08:04.356Z,100153.50
2019-03-03T15:10:34.135Z,100160.95
2019-03-03T15:13:03.848Z,100158.26
2019-03-03T15:15:37.107Z,100164.41
2019-03-03T15:18:06.943Z,100158.86
2019-03-03T15:20:37.065Z,100150.02
2019-03-03T15:23:06.772Z,100151.96
2019-03-03T15:25:36.480Z,100158.87
2019-03-03T15:28:06.601Z,100154.00
2019-03-03T15:30:36.255Z,100148.87
2019-03-03T15:33:06.021Z,100153.58
2019-03-03T15:35:36.235Z,100168.16
2019-03-03T15:38:06.113Z,100160.89
2019-03-03T15:40:35.874Z,100161.36
2019-03-03T15:43:06.182Z,100156.66
2019-03-03T15:45:35.893Z,100149.53
2019-03-03T15:48:05.595Z,100151.84
2019-03-03T15:50:35.714Z,100147.86
2019-03-03T15:53:05.424Z,100144.83
2019-03-03T15:55:35.134Z,100146.79
2019-03-03T15:58:05.353Z,100151.55
2019-03-03T16:00:41.830Z,100152.33
2019-03-03T16:03:12.050Z,100163.69
2019-03-03T16:05:41.851Z,100163.74
2019-03-03T16:08:11.568Z,100171.16
2019-03-03T16:10:41.783Z,100172.52
2019-03-03T16:13:11.486Z,100165.26
2019-03-03T16:15:41.197Z,100159.18
2019-03-03T16:18:11.229Z,100153.44
2019-03-03T16:20:41.026Z,100145.23
2019-03-03T16:23:10.858Z,100139.27
2019-03-03T16:25:41.035Z,100138.75
2019-03-03T16:28:12.307Z,100136.19
2019-03-03T16:30:41.969Z,100126.56
2019-03-03T16:33:20.244Z,100122.80
2019-03-03T16:35:43.580Z,100120.75
2019-03-03T16:38:13.806Z,100121.32
2019-03-03T16:40:43.608Z,100111.97
2019-03-03T16:43:13.527Z,100113.80
2019-03-03T16:45:43.639Z,100101.16
2019-03-03T16:48:13.367Z,100095.04
2019-03-03T16:50:43.016Z,100099.53
2019-03-03T16:53:13.203Z,100101.58
2019-03-03T16:55:42.900Z,100103.41
2019-03-03T16:58:12.705Z,100097.77
2019-03-03T17:00:42.811Z,100099.48
2019-03-03T17:03:12.479Z,100103.24
2019-03-03T17:05:42.750Z,100104.55
2019-03-03T17:08:12.897Z,100091.64
2019-03-03T17:10:42.700Z,100091.32
2019-03-03T17:13:13.411Z,100085.95
2019-03-03T17:15:43.629Z,100082.55
2019-03-03T17:18:13.405Z,100077.69
2019-03-03T17:20:43.143Z,100079.61
2019-03-03T17:23:13.364Z,100083.38
2019-03-03T17:25:43.092Z,100087.77
2019-03-03T17:28:12.757Z,100081.40
2019-03-03T17:30:43.107Z,100074.77
2019-03-03T17:33:13.576Z,100083.53
2019-03-03T17:35:43.317Z,100089.98
2019-03-03T17:38:13.507Z,100096.19
2019-03-03T17:40:43.581Z,100093.94
2019-03-03T17:43:14.994Z,100088.71
2019-03-03T17:45:45.862Z,100086.67
2019-03-03T17:48:16.506Z,100085.25
2019-03-03T17:50:47.240Z,100081.82
2019-03-03T17:53:18.261Z,100086.45
2019-03-03T17:55:48.490Z,100083.64
2019-03-03T17:58:19.233Z,100083.75
2019-03-03T18:00:49.647Z,100080.56
2019-03-03T18:03:19.775Z,100082.89
2019-03-03T18:05:50.422Z,100088.64
2019-03-03T18:08:20.206Z,100086.49
2019-03-03T18:10:50.329Z,100092.64
2019-03-03T18:13:20.025Z,100089.62
2019-03-03T18:15:49.944Z,100091.14
2019-03-03T18:18:20.258Z,100081.59
2019-03-03T18:20:49.975Z,100079.98
2019-03-03T18:23:19.647Z,100076.95
2019-03-03T18:25:49.827Z,100075.56
2019-03-03T18:28:19.504Z,100068.28
2019-03-03T18:30:49.441Z,100072.20
2019-03-03T18:33:19.561Z,100071.47
2019-03-03T18:35:49.243Z,100063.18
2019-03-03T18:38:18.945Z,100064.45
2019-03-03T18:40:49.100Z,100066.63
2019-03-03T18:43:18.886Z,100063.22
2019-03-03T18:45:48.597Z,100067.67
2019-03-03T18:48:18.982Z,100057.66
2019-03-03T18:50:49.580Z,100056.78
2019-03-03T18:53:19.357Z,100048.41
2019-03-03T18:55:49.478Z,100053.32
2019-03-03T18:58:19.198Z,100052.83
2019-03-03T19:00:48.945Z,100046.77
2019-03-03T19:03:19.119Z,100048.10
2019-03-03T19:05:55.456Z,100048.11
2019-03-03T19:08:20.687Z,100045.95
2019-03-03T19:10:50.358Z,100062.03
2019-03-03T19:13:19.996Z,100062.95
2019-03-03T19:15:50.294Z,100060.84
2019-03-03T19:18:20.143Z,100060.80
2019-03-03T19:20:50.409Z,100064.36
2019-03-03T19:23:20.547Z,100065.21
2019-03-03T19:25:50.229Z,100054.77
2019-03-03T19:28:21.384Z,100057.45
2019-03-03T19:30:51.045Z,100058.33
2019-03-03T19:33:26.789Z,100052.73
2019-03-03T19:35:56.934Z,100059.70
2019-03-03T19:38:26.703Z,100057.23
2019-03-03T19:40:56.412Z,100062.41
2019-03-03T19:43:28.098Z,100061.56
2019-03-03T19:46:00.648Z,100055.50
2019-03-03T19:48:30.866Z,100057.16
2019-03-03T19:51:03.322Z,100052.08
2019-03-03T19:53:34.067Z,100052.98
2019-03-03T19:56:03.887Z,100051.66
2019-03-03T19:58:33.592Z,100042.05
2019-03-03T20:01:04.420Z,100036.05
2019-03-03T20:03:34.472Z,100044.31
2019-03-03T20:06:04.587Z,100033.52
2019-03-03T20:08:34.899Z,100034.45
2019-03-03T20:11:04.812Z,100035.77
2019-03-03T20:13:34.758Z,100033.23
2019-03-03T20:16:05.076Z,100042.83
2019-03-03T20:18:35.009Z,100043.34
2019-03-03T20:21:04.973Z,100037.14
2019-03-03T20:23:35.854Z,100037.81
2019-03-03T20:26:05.992Z,100034.68
2019-03-03T20:28:36.442Z,100029.90
2019-03-03T20:31:06.704Z,100035.58
2019-03-03T20:33:36.688Z,100025.27
2019-03-03T20:36:07.247Z,100029.00
2019-03-03T20:38:37.549Z,100027.31
2019-03-03T20:41:07.957Z,100022.98
2019-03-03T20:43:38.753Z,100020.88
2019-03-03T20:46:09.106Z,100018.29
2019-03-03T20:48:42.834Z,100010.44
2019-03-03T20:51:13.185Z,100015.17
2019-03-03T20:53:43.487Z,100014.38
2019-03-03T20:56:13.467Z,100015.69
2019-03-03T20:58:43.794Z,100005.72
2019-03-03T21:01:13.527Z,100007.02
2019-03-03T21:03:43.315Z,100020.87
2019-03-03T21:06:13.539Z,100016.53
2019-03-03T21:08:53.689Z,100011.35
2019-03-03T21:11:23.907Z,100001.83
2019-03-03T21:13:53.621Z,100008.28
2019-03-03T21:16:23.281Z,100011.38
2019-03-03T21:18:53.314Z,100011.31
2019-03-03T21:21:23.075Z,100008.81
2019-03-03T21:23:52.846Z,100002.22
2019-03-03T21:26:24.615Z,100007.90
2019-03-03T21:28:54.268Z,100007.59
2019-03-03T21:31:25.925Z,100009.70
2019-03-03T21:33:58.844Z,99996.20
2019-03-03T21:36:29.417Z,99996.63
2019-03-03T21:39:00.191Z,99998.81
2019-03-03T21:41:32.923Z,99990.14
2019-03-03T21:44:09.139Z,99993.59
2019-03-03T21:46:46.488Z,99991.87
2019-03-03T21:49:16.569Z,99985.77
2019-03-03T21:51:46.991Z,99986.59
2019-03-03T21:54:16.864Z,99987.50
2019-03-03T21:56:46.618Z,99976.23
2019-03-03T21:59:19.831Z,99979.32
2019-03-03T22:01:48.739Z,99968.80
2019-03-03T22:04:19.348Z,99965.34
2019-03-03T22:06:49.708Z,99965.34
2019-03-03T22:09:23.157Z,99970.23
2019-03-03T22:11:53.148Z,99961.91
2019-03-03T22:14:23.582Z,99956.45
2019-03-03T22:16:59.721Z,99963.30
2019-03-03T22:19:31.204Z,99960.66
2019-03-03T22:22:04.087Z,99952.67
2019-03-03T22:24:34.230Z,99951.95
2019-03-03T22:27:03.917Z,99944.62
2019-03-03T22:29:33.617Z,99938.30
2019-03-03T22:32:03.742Z,99942.99
2019-03-03T22:34:33.439Z,99939.30
2019-03-03T22:37:03.146Z,99920.45
2019-03-03T22:39:33.364Z,99917.73
2019-03-03T22:42:03.015Z,99920.83
2019-03-03T22:44:32.597Z,99921.27
2019-03-03T22:47:03.028Z,99923.38
2019-03-03T22:49:33.010Z,99933.80
2019-03-03T22:52:08.685Z,99935.97
2019-03-03T22:54:40.978Z,99921.27
2019-03-03T22:57:12.325Z,99927.28
2019-03-03T22:59:44.045Z,99934.70
2019-03-03T23:02:15.228Z,99932.97
2019-03-03T23:05:04.141Z,99922.20
2019-03-03T23:07:40.497Z,99930.45
2019-03-03T23:10:39.673Z,99931.75
2019-03-03T23:13:33.052Z,99923.07
2019-03-03T23:16:15.436Z,99910.93
2019-03-03T23:19:06.724Z,99910.11
2019-03-03T23:21:46.480Z,99904.00
2019-03-03T23:24:26.032Z,99896.23
2019-03-03T23:27:05.264Z,99897.55
2019-03-03T23:29:37.988Z,99901.03
2019-03-03T23:32:11.024Z,99899.27
2019-03-03T23:34:41.388Z,99898.84
2019-03-03T23:37:11.539Z,99906.61
2019-03-03T23:39:41.194Z,99895.02
2019-03-03T23:42:10.866Z,99892.42
2019-03-03T23:44:41.520Z,99886.30
2019-03-03T23:47:11.612Z,99885.06
2019-03-03T23:49:41.788Z,99882.91
2019-03-03T23:52:12.549Z,99863.02
2019-03-03T23:54:42.640Z,99865.10
2019-03-03T23:57:13.193Z,99865.16
2019-03-03T23:59:43.257Z,99844.79
